Time;durP1;ratioP1;P1;durP2;ratioP2;P2;SDS_P1;SDS_P2;PMS_P1;PMS_P2;Temp;Humidity;BMP_temperature;BMP_pressure;BME280_temperature;BME280_humidity;BME280_pressure;Samples;Min_cycle;Max_cycle;Signal;HPM_P1;HPM_P2
2023/07/27 00:00:24;;;;;;;18.77;9.40;;;;;;;25.18;51.75;98612.47;3107208;28;20046;-74
2023/07/27 00:01:55;;;;;;;19.30;9.57;;;;;;;25.13;52.16;98606.88;3103989;28;20115;-73
2023/07/27 00:03:27;;;;;;;17.02;9.38;;;;;;;25.12;51.72;98607.06;3109816;28;20054;-73
2023/07/27 00:04:59;;;;;;;18.25;9.32;;;;;;;25.12;51.70;98609.72;3109500;28;20042;-73
2023/07/27 00:06:29;;;;;;;14.88;8.75;;;;;;;25.09;51.49;98613.59;3109959;28;20051;-73
2023/07/27 00:08:01;;;;;;;15.38;9.40;;;;;;;25.08;51.50;98603.97;3107167;28;20069;-73
2023/07/27 00:09:33;;;;;;;14.25;8.65;;;;;;;25.07;51.89;98601.47;3099970;28;20057;-74
2023/07/27 00:11:05;;;;;;;14.95;8.82;;;;;;;25.10;52.02;98601.09;3109379;28;20511;-75
2023/07/27 00:12:37;;;;;;;11.50;7.55;;;;;;;25.05;52.14;98601.66;3109726;28;20148;-75
2023/07/27 00:14:09;;;;;;;15.55;7.75;;;;;;;25.02;52.04;98607.34;3109337;28;20216;-74
2023/07/27 00:15:40;;;;;;;13.68;7.95;;;;;;;24.96;52.43;98606.31;3108889;28;20053;-72
2023/07/27 00:17:11;;;;;;;14.40;7.43;;;;;;;24.94;52.60;98613.66;3098045;28;20136;-73
2023/07/27 00:18:42;;;;;;;18.80;8.63;;;;;;;24.93;52.44;98619.16;3108409;28;20076;-72
2023/07/27 00:20:14;;;;;;;16.67;8.60;;;;;;;24.92;52.39;98630.84;3109790;28;20054;-72
2023/07/27 00:21:45;;;;;;;14.05;7.60;;;;;;;24.90;52.10;98623.03;3109246;28;20502;-72
2023/07/27 00:23:17;;;;;;;12.32;8.55;;;;;;;24.87;52.29;98623.41;3104928;28;20050;-73
2023/07/27 00:24:47;;;;;;;13.10;7.22;;;;;;;24.86;52.17;98627.09;3097412;28;20062;-73
2023/07/27 00:26:20;;;;;;;11.52;7.78;;;;;;;24.90;51.94;98622.19;3097363;28;20058;-72
2023/07/27 00:27:51;;;;;;;12.80;7.20;;;;;;;24.88;51.79;98618.94;3103889;28;20050;-72
2023/07/27 00:29:23;;;;;;;10.70;7.82;;;;;;;24.89;52.07;98626.72;3109423;28;20248;-72
2023/07/27 00:30:54;;;;;;;13.18;7.13;;;;;;;24.91;51.66;98618.53;3108939;28;20060;-73
2023/07/27 00:32:26;;;;;;;11.70;6.57;;;;;;;24.90;51.82;98624.88;3109149;28;20054;-72
2023/07/27 00:33:58;;;;;;;9.70;6.57;;;;;;;24.91;51.34;98626.53;3109346;28;20096;-72
2023/07/27 00:35:28;;;;;;;11.23;6.75;;;;;;;24.89;51.62;98631.22;3109581;28;20060;-73
2023/07/27 00:37:00;;;;;;;13.75;6.90;;;;;;;24.88;51.38;98617.09;3108781;28;20049;-72
2023/07/27 00:38:31;;;;;;;13.57;7.38;;;;;;;24.84;51.40;98618.47;3105012;28;20108;-73
2023/07/27 00:40:03;;;;;;;16.63;7.25;;;;;;;24.83;51.34;98621.31;3107868;28;20140;-73
2023/07/27 00:41:36;;;;;;;11.93;6.45;;;;;;;24.79;51.17;98620.88;3097899;28;20072;-73
2023/07/27 00:43:07;;;;;;;11.52;6.03;;;;;;;24.78;51.21;98624.53;3109235;28;20176;-73
2023/07/27 00:44:38;;;;;;;12.10;6.30;;;;;;;24.80;51.15;98622.53;3109418;28;20058;-72
2023/07/27 00:46:11;;;;;;;14.23;6.55;;;;;;;24.80;51.31;98619.88;3098566;28;20050;-73
2023/07/27 00:47:42;;;;;;;12.07;6.00;;;;;;;24.76;51.73;98621.28;3099271;28;20054;-73
2023/07/27 00:49:14;;;;;;;12.02;6.28;;;;;;;24.73;51.64;98625.13;3096874;28;20050;-73
2023/07/27 00:50:46;;;;;;;13.85;6.85;;;;;;;24.67;51.57;98617.09;3106490;28;20050;-73
2023/07/27 00:52:18;;;;;;;9.30;5.93;;;;;;;24.68;51.29;98621.38;3108153;28;20100;-74
2023/07/27 00:53:49;;;;;;;10.98;5.70;;;;;;;24.67;51.37;98625.88;3093581;28;20061;-72
2023/07/27 00:55:21;;;;;;;12.48;6.13;;;;;;;24.67;51.51;98615.25;3102579;28;20050;-72
2023/07/27 00:56:53;;;;;;;10.90;6.65;;;;;;;24.67;52.04;98612.56;3104378;28;20501;-72
2023/07/27 00:58:26;;;;;;;13.73;6.90;;;;;;;24.63;51.90;98611.28;3101020;28;20046;-72
2023/07/27 00:59:57;;;;;;;11.40;6.57;;;;;;;24.60;51.97;98609.00;3109106;28;20052;-72
2023/07/27 01:01:28;;;;;;;12.48;6.15;;;;;;;24.61;51.67;98620.47;3108922;28;20054;-73
2023/07/27 01:03:02;;;;;;;8.57;5.90;;;;;;;24.62;51.78;98620.28;3109130;28;20116;-73
2023/07/27 01:04:35;;;;;;;9.10;6.15;;;;;;;24.63;52.01;98629.91;3109349;28;20077;-72
2023/07/27 01:06:06;;;;;;;9.88;6.63;;;;;;;24.63;51.98;98629.91;3108968;28;20531;-73
2023/07/27 01:07:38;;;;;;;8.65;5.55;;;;;;;24.67;51.79;98635.72;3104691;28;20046;-72
2023/07/27 01:09:09;;;;;;;12.35;6.75;;;;;;;24.64;51.47;98636.91;3096843;28;20085;-72
2023/07/27 01:10:50;;;;;;;11.45;6.80;;;;;;;24.66;51.55;98636.72;3096801;28;20081;-73
2023/07/27 01:12:28;;;;;;;9.95;6.20;;;;;;;24.60;51.97;98635.63;3100884;28;20556;-73
2023/07/27 01:14:06;;;;;;;11.30;6.07;;;;;;;24.59;51.46;98635.81;3096610;28;20459;-73
2023/07/27 01:15:44;;;;;;;9.88;5.68;;;;;;;24.56;51.82;98634.34;3089558;28;20050;-72
2023/07/27 01:17:24;;;;;;;9.20;5.25;;;;;;;24.54;51.92;98646.19;3108962;28;20476;-73
2023/07/27 01:19:06;;;;;;;8.90;5.70;;;;;;;24.51;51.78;98639.41;3108903;28;20077;-73
2023/07/27 01:20:46;;;;;;;9.00;5.93;;;;;;;24.48;51.87;98642.44;3085096;28;20054;-72
2023/07/27 01:22:38;;;;;;;8.90;5.93;;;;;;;24.47;51.47;98644.28;3104107;28;20046;-73
2023/07/27 01:24:42;;;;;;;10.13;5.68;;;;;;;24.37;51.73;98645.53;3096388;28;20063;-70
2023/07/27 01:26:38;;;;;;;9.50;5.43;;;;;;;24.35;52.00;98632.44;3103240;28;20055;-69
2023/07/27 01:28:26;;;;;;;11.82;5.78;;;;;;;24.35;51.93;98637.75;3108775;28;20196;-70
2023/07/27 01:30:30;;;;;;;8.63;5.78;;;;;;;24.32;51.49;98639.97;3108867;28;20045;-69
2023/07/27 01:32:04;;;;;;;8.85;5.47;;;;;;;24.33;51.41;98631.78;3108564;28;20444;-70
2023/07/27 01:33:41;;;;;;;11.50;5.95;;;;;;;24.36;51.71;98633.25;3108837;28;20050;-70
2023/07/27 01:35:16;;;;;;;8.38;5.50;;;;;;;24.36;51.61;98620.78;3108524;28;20444;-69
2023/07/27 01:36:54;;;;;;;11.45;6.38;;;;;;;24.39;51.31;98623.06;3104162;28;20524;-70
2023/07/27 01:38:26;;;;;;;8.77;5.75;;;;;;;24.39;51.55;98627.56;3089987;28;20051;-70
2023/07/27 01:40:02;;;;;;;8.63;5.70;;;;;;;24.38;51.56;98628.59;3096592;28;20050;-69
2023/07/27 01:41:36;;;;;;;8.77;5.90;;;;;;;24.39;51.71;98624.91;3108368;28;20215;-70
2023/07/27 01:43:09;;;;;;;9.50;5.68;;;;;;;24.37;51.53;98629.56;3108246;28;20073;-70
2023/07/27 01:44:40;;;;;;;9.55;5.53;;;;;;;24.35;51.12;98628.97;3108566;28;20057;-70
2023/07/27 01:46:13;;;;;;;7.45;4.75;;;;;;;24.28;51.14;98632.38;3107941;28;20519;-70
2023/07/27 01:47:46;;;;;;;9.93;5.30;;;;;;;24.34;51.40;98640.59;3098842;28;20104;-70
2023/07/27 01:49:19;;;;;;;13.98;5.60;;;;;;;24.30;51.10;98640.97;3096215;28;20124;-70
2023/07/27 01:50:51;;;;;;;9.88;5.30;;;;;;;24.29;51.06;98639.31;3104675;28;20073;-72
2023/07/27 01:52:24;;;;;;;7.60;5.55;;;;;;;24.28;51.41;98635.03;3102445;28;20050;-72
2023/07/27 01:53:55;;;;;;;;;;;;;;;24.09;51.48;98642.75;3097652;28;20046;-72
2023/07/27 01:55:29;;;;;;;8.15;5.63;;;;;;;24.15;51.72;98644.66;3102854;28;20303;-72
2023/07/27 01:57:02;;;;;;;7.30;5.28;;;;;;;24.15;51.32;98640.16;3108390;28;20558;-72
2023/07/27 01:58:34;;;;;;;;;;;;;;;23.98;51.77;98644.00;3109001;28;20069;-72
2023/07/27 02:00:08;;;;;;;13.00;5.75;;;;;;;24.05;51.57;98652.94;3108620;28;19922;-73
2023/07/27 02:01:42;;;;;;;8.40;5.47;;;;;;;24.05;51.83;98650.28;3108554;28;20053;-73
2023/07/27 02:03:17;;;;;;;7.30;5.13;;;;;;;24.06;51.48;98654.56;3107324;28;20050;-71
2023/07/27 02:04:50;;;;;;;8.77;5.07;;;;;;;24.05;51.75;98652.94;3108116;28;20111;-69
2023/07/27 02:06:22;;;;;;;12.00;5.35;;;;;;;24.06;51.59;98665.22;3101188;28;20050;-71
2023/07/27 02:07:53;;;;;;;9.68;5.15;;;;;;;24.06;51.92;98655.38;3096557;28;20061;-71
2023/07/27 02:09:26;;;;;;;8.02;5.47;;;;;;;24.05;51.36;98647.63;3096156;28;20054;-72
2023/07/27 02:11:02;;;;;;;10.63;5.18;;;;;;;24.03;51.67;98644.31;3096859;28;20042;-71
2023/07/27 02:12:42;;;;;;;8.38;5.07;;;;;;;23.98;51.73;98657.31;3108226;28;20081;-71
2023/07/27 02:14:22;;;;;;;8.60;5.25;;;;;;;23.94;51.33;98656.84;3108034;28;20104;-71
2023/07/27 02:16:09;;;;;;;12.90;5.38;;;;;;;23.93;51.56;98665.84;3101184;28;20054;-71
2023/07/27 02:17:45;;;;;;;7.43;5.10;;;;;;;23.91;51.88;98657.22;3098976;28;20059;-71
2023/07/27 02:19:26;;;;;;;10.68;5.45;;;;;;;23.93;51.94;98654.38;3108390;28;20054;-71
2023/07/27 02:20:58;;;;;;;7.40;5.07;;;;;;;23.92;51.65;98663.38;3100684;28;20414;-71
2023/07/27 02:22:31;;;;;;;9.75;5.60;;;;;;;23.93;51.67;98672.97;3098523;28;20101;-71
2023/07/27 02:24:03;;;;;;;8.45;5.68;;;;;;;23.92;51.86;98671.34;3097610;28;20542;-71
2023/07/27 02:25:35;;;;;;;8.63;4.75;;;;;;;23.90;51.61;98666.22;3096889;28;20054;-70
2023/07/27 02:27:07;;;;;;;7.80;5.53;;;;;;;23.93;52.04;98673.84;3108073;28;20056;-74
2023/07/27 02:28:39;;;;;;;7.78;5.28;;;;;;;23.95;51.95;98673.63;3108392;28;20060;-70
2023/07/27 02:30:11;;;;;;;9.95;5.50;;;;;;;23.92;51.58;98690.78;3108337;28;20061;-71
2023/07/27 02:31:42;;;;;;;10.48;5.30;;;;;;;23.89;51.60;98679.69;3108223;28;20069;-74
2023/07/27 02:33:14;;;;;;;8.32;5.00;;;;;;;23.90;51.98;98690.16;3107648;28;20516;-74
2023/07/27 02:34:46;;;;;;;8.90;5.13;;;;;;;23.89;51.61;98690.31;3107191;28;20049;-73
2023/07/27 02:36:18;;;;;;;9.25;5.45;;;;;;;23.86;52.03;98686.19;3096065;28;20054;-73
2023/07/27 02:37:48;;;;;;;8.45;5.68;;;;;;;23.81;52.15;98693.88;3102937;28;20038;-73
2023/07/27 02:39:20;;;;;;;12.77;5.57;;;;;;;23.79;51.88;98710.00;3096193;28;20054;-73
2023/07/27 02:40:51;;;;;;;7.30;5.13;;;;;;;23.75;51.99;98702.56;3095945;28;20112;-73
2023/07/27 02:42:23;;;;;;;8.95;5.68;;;;;;;23.72;52.19;98708.25;3101297;28;20103;-73
2023/07/27 02:43:53;;;;;;;10.43;5.35;;;;;;;23.69;52.58;98709.41;3107526;28;20045;-73
2023/07/27 02:45:25;;;;;;;8.52;5.60;;;;;;;23.69;52.58;98709.41;3107178;28;20499;-73
2023/07/27 02:46:56;;;;;;;7.95;5.50;;;;;;;23.70;52.21;98716.41;3107929;28;20054;-73
2023/07/27 02:48:28;;;;;;;11.45;5.72;;;;;;;23.72;52.31;98713.56;3105659;28;20050;-73
2023/07/27 02:50:01;;;;;;;9.13;5.53;;;;;;;23.72;52.39;98726.84;3095470;28;20050;-73
2023/07/27 02:51:32;;;;;;;11.50;5.88;;;;;;;23.68;52.46;98726.34;3096753;28;20121;-73
2023/07/27 02:53:04;;;;;;;11.65;5.68;;;;;;;23.65;52.63;98728.56;3105144;28;20050;-73
2023/07/27 02:54:34;;;;;;;8.18;5.57;;;;;;;23.65;52.81;98747.16;3096028;28;20459;-73
2023/07/27 02:56:07;;;;;;;8.40;6.22;;;;;;;23.63;52.79;98734.03;3107911;28;20053;-73
2023/07/27 02:57:38;;;;;;;7.88;5.65;;;;;;;23.60;52.75;98747.69;3107918;28;20045;-73
2023/07/27 02:59:09;;;;;;;8.52;5.68;;;;;;;23.61;52.95;98747.53;3107780;28;20057;-73
2023/07/27 03:00:40;;;;;;;9.27;5.22;;;;;;;23.62;52.91;98754.47;3107941;28;20061;-72
2023/07/27 03:02:12;;;;;;;12.10;5.38;;;;;;;23.57;52.96;98762.19;3107488;28;20050;-72
2023/07/27 03:03:43;;;;;;;8.88;5.75;;;;;;;23.59;53.21;98754.00;3108069;28;20045;-72
2023/07/27 03:05:16;;;;;;;10.85;5.95;;;;;;;23.56;53.31;98773.78;3096273;28;20073;-71
2023/07/27 03:06:47;;;;;;;;;;;;;;;23.36;53.56;98765.47;3102064;28;20120;-71
2023/07/27 03:08:18;;;;;;;9.05;5.50;;;;;;;23.42;53.66;98771.06;3102957;28;19921;-70
2023/07/27 03:09:50;;;;;;;8.35;5.55;;;;;;;23.41;53.68;98767.59;3095742;28;20507;-71
2023/07/27 03:11:22;;;;;;;10.25;5.82;;;;;;;23.47;53.62;98774.88;3099219;28;20073;-70
2023/07/27 03:12:53;;;;;;;9.50;5.75;;;;;;;23.50;53.61;98776.34;3107527;28;20050;-70
2023/07/27 03:14:24;;;;;;;11.30;5.82;;;;;;;23.49;53.55;98766.72;3107994;28;20054;-71
2023/07/27 03:15:56;;;;;;;8.32;6.00;;;;;;;23.46;53.80;98772.41;3102687;28;20054;-72
2023/07/27 03:17:27;;;;;;;11.27;6.65;;;;;;;23.47;53.55;98772.19;3098558;28;20053;-72
2023/07/27 03:18:59;;;;;;;10.75;5.90;;;;;;;23.46;53.24;98778.53;3106239;28;20050;-72
2023/07/27 03:20:37;;;;;;;11.20;6.75;;;;;;;23.42;53.23;98773.72;3098166;28;20050;-71
2023/07/27 03:22:09;;;;;;;10.45;5.53;;;;;;;23.32;53.70;98766.00;3086374;28;20057;-71
2023/07/27 03:23:40;;;;;;;10.77;6.03;;;;;;;23.31;53.08;98782.97;3100792;28;20634;-72
2023/07/27 03:25:12;;;;;;;13.63;5.07;;;;;;;23.26;53.19;98758.75;3097624;28;20108;-74
2023/07/27 03:26:43;;;;;;;11.63;5.63;;;;;;;23.27;53.04;98771.84;3107982;28;20050;-73
2023/07/27 03:28:14;;;;;;;8.23;5.35;;;;;;;23.26;53.28;98775.50;3110094;28;20077;-73
2023/07/27 03:29:45;;;;;;;9.68;5.43;;;;;;;23.26;52.87;98764.06;3109757;28;20054;-73
2023/07/27 03:31:19;;;;;;;9.30;5.05;;;;;;;23.25;52.86;98773.84;3110223;28;20133;-73
2023/07/27 03:32:49;;;;;;;8.40;5.28;;;;;;;23.23;52.76;98773.19;3110171;28;20053;-73
2023/07/27 03:34:21;;;;;;;8.77;5.18;;;;;;;23.24;52.38;98772.19;3099757;28;20054;-75
2023/07/27 03:35:53;;;;;;;12.40;5.00;;;;;;;23.25;51.52;98768.53;3102650;28;20050;-72
2023/07/27 03:37:25;;;;;;;7.13;4.90;;;;;;;23.21;51.26;98767.22;3109844;28;20041;-74
2023/07/27 03:38:56;;;;;;;9.50;4.43;;;;;;;23.20;51.53;98770.91;3100114;28;20057;-74
2023/07/27 03:40:28;;;;;;;8.10;4.25;;;;;;;23.18;51.39;98762.25;3097856;28;20050;-71
2023/07/27 03:42:00;;;;;;;7.63;4.72;;;;;;;23.15;51.09;98779.38;3099793;28;20445;-72
2023/07/27 03:43:31;;;;;;;7.03;3.75;;;;;;;23.14;51.17;98791.00;3109887;28;20068;-71
2023/07/27 03:45:03;;;;;;;12.32;4.90;;;;;;;23.13;51.08;98785.84;3108521;28;20508;-72
2023/07/27 03:46:33;;;;;;;6.70;3.75;;;;;;;23.15;50.83;98789.16;3097780;28;20085;-71
2023/07/27 03:48:05;;;;;;;9.82;3.85;;;;;;;23.13;50.75;98791.16;3106483;28;20120;-68
2023/07/27 03:49:37;;;;;;;6.43;4.10;;;;;;;23.14;50.50;98784.88;3098201;28;20050;-70
2023/07/27 03:51:10;;;;;;;5.28;3.58;;;;;;;23.13;50.42;98802.66;3107469;28;20060;-69
2023/07/27 03:52:41;;;;;;;5.80;3.28;;;;;;;23.10;50.14;98805.66;3108338;28;20057;-69
2023/07/27 03:54:12;;;;;;;7.50;3.33;;;;;;;23.11;50.28;98801.16;3097523;28;20507;-69
2023/07/27 03:55:43;;;;;;;4.35;3.05;;;;;;;23.13;49.72;98802.66;3106206;28;20049;-68
2023/07/27 03:57:15;;;;;;;6.43;3.33;;;;;;;23.12;49.77;98797.50;3109719;28;20357;-68
2023/07/27 03:58:46;;;;;;;7.70;3.20;;;;;;;23.07;49.68;98802.47;3109931;28;20057;-68
2023/07/27 04:00:18;;;;;;;7.28;2.85;;;;;;;23.03;48.98;98812.63;3107676;28;20049;-68
2023/07/27 04:01:49;;;;;;;4.97;3.10;;;;;;;23.00;48.88;98818.28;3099161;28;20054;-68
2023/07/27 04:03:21;;;;;;;8.00;2.50;;;;;;;22.99;48.90;98814.00;3101559;28;20104;-67
2023/07/27 04:04:52;;;;;;;5.00;2.40;;;;;;;22.98;49.01;98806.19;3097890;28;20050;-68
2023/07/27 04:06:25;;;;;;;7.35;2.92;;;;;;;23.00;48.46;98820.13;3109571;28;20076;-68
2023/07/27 04:07:56;;;;;;;3.38;2.00;;;;;;;22.98;48.51;98827.44;3106992;28;20050;-74
2023/07/27 04:09:28;;;;;;;3.78;2.35;;;;;;;22.98;48.64;98835.38;3097122;28;20046;-73
2023/07/27 04:10:59;;;;;;;6.05;2.20;;;;;;;22.97;48.77;98833.75;3096745;28;20061;-73
2023/07/27 04:12:31;;;;;;;8.05;3.35;;;;;;;22.99;48.44;98842.38;3109449;28;20041;-74
2023/07/27 04:14:01;;;;;;;4.88;2.05;;;;;;;23.00;48.13;98838.72;3108959;28;20052;-75
2023/07/27 04:15:34;;;;;;;4.60;2.33;;;;;;;23.02;48.00;98836.72;3110414;28;20065;-76
2023/07/27 04:17:05;;;;;;;5.97;2.30;;;;;;;22.91;48.24;98835.22;3101295;28;20108;-75
2023/07/27 04:18:37;;;;;;;6.43;2.50;;;;;;;22.93;48.05;98843.84;3100129;28;20538;-74
2023/07/27 04:20:09;;;;;;;5.47;2.40;;;;;;;22.90;47.84;98845.03;3105691;28;20443;-70
2023/07/27 04:21:42;;;;;;;5.25;3.28;;;;;;;22.90;48.00;98847.69;3108758;28;20054;-71
2023/07/27 04:23:14;;;;;;;;;;;;;;;22.71;48.28;98851.53;3105596;28;20109;-70
2023/07/27 04:24:45;;;;;;;12.95;6.38;;;;;;;22.77;48.06;98855.34;3096398;28;19933;-69
2023/07/27 04:26:17;;;;;;;9.40;2.42;;;;;;;22.83;47.94;98853.81;3102983;28;20800;-69
2023/07/27 04:27:49;;;;;;;17.73;7.45;;;;;;;22.86;48.13;98862.28;3109259;28;20054;-71
2023/07/27 04:29:20;;;;;;;12.13;3.50;;;;;;;22.88;48.12;98857.63;3109315;28;20052;-65
2023/07/27 04:30:51;;;;;;;6.45;3.58;;;;;;;22.92;47.96;98863.41;3108898;28;20424;-71
2023/07/27 04:32:23;;;;;;;6.22;2.65;;;;;;;22.92;47.55;98871.38;3108332;28;20050;-70
2023/07/27 04:33:55;;;;;;;3.40;2.58;;;;;;;22.92;47.94;98869.59;3097087;28;20057;-69
2023/07/27 04:35:27;;;;;;;9.32;2.70;;;;;;;22.88;47.63;98884.19;3097991;28;20054;-70
2023/07/27 04:36:59;;;;;;;6.57;2.53;;;;;;;22.86;47.77;98874.72;3109080;28;20053;-71
2023/07/27 04:38:31;;;;;;;6.90;3.22;;;;;;;22.84;48.00;98884.72;3102903;28;20523;-69
2023/07/27 04:40:02;;;;;;;6.43;3.08;;;;;;;22.81;47.52;98880.56;3097142;28;21471;-70
2023/07/27 04:41:34;;;;;;;11.25;3.88;;;;;;;22.78;47.88;98878.25;3096737;28;20484;-76
2023/07/27 04:43:04;;;;;;;7.68;3.75;;;;;;;22.75;47.84;98880.41;3107360;28;20057;-72
2023/07/27 04:44:36;;;;;;;3.88;2.40;;;;;;;22.77;47.65;98871.25;3108966;28;20049;-72
2023/07/27 04:46:07;;;;;;;8.10;2.65;;;;;;;22.79;47.83;98882.53;3107767;28;20054;-74
2023/07/27 04:47:39;;;;;;;3.38;2.40;;;;;;;22.81;47.83;98888.53;3109314;28;20053;-72
2023/07/27 04:49:10;;;;;;;5.38;3.00;;;;;;;22.79;47.85;98885.19;3097972;28;20389;-72
2023/07/27 04:50:41;;;;;;;12.60;3.20;;;;;;;22.78;48.00;98883.56;3103777;28;20054;-76
2023/07/27 04:52:14;;;;;;;4.88;3.67;;;;;;;22.82;47.70;98881.38;3105925;28;20057;-73
2023/07/27 04:53:45;;;;;;;5.40;4.20;;;;;;;22.80;47.88;98886.03;3100807;28;20058;-72
2023/07/27 04:55:16;;;;;;;9.43;5.68;;;;;;;22.83;48.03;98894.47;3099055;28;20452;-71
2023/07/27 04:56:48;;;;;;;8.85;4.30;;;;;;;22.87;47.66;98893.16;3107162;28;20047;-72
2023/07/27 04:58:20;;;;;;;8.73;3.28;;;;;;;22.83;47.80;98889.16;3108853;28;20065;-74
2023/07/27 04:59:51;;;;;;;8.20;3.35;;;;;;;22.78;47.70;98888.88;3101868;28;20050;-72
2023/07/27 05:01:23;;;;;;;6.45;3.80;;;;;;;22.78;48.15;98886.22;3096685;28;20050;-75
2023/07/27 05:02:54;;;;;;;5.50;3.55;;;;;;;22.75;47.86;98910.44;3097026;28;20054;-72
2023/07/27 05:04:26;;;;;;;6.40;3.05;;;;;;;22.75;48.19;98894.50;3099462;28;20511;-73
2023/07/27 05:05:57;;;;;;;6.00;3.20;;;;;;;22.74;48.26;98889.34;3100724;28;20480;-74
2023/07/27 05:07:30;;;;;;;4.40;3.25;;;;;;;22.80;47.90;98892.16;3096773;28;20058;-71
2023/07/27 05:09:01;;;;;;;;;;;;;;;22.66;48.34;98903.50;3097144;28;20495;-73
2023/07/27 05:10:33;;;;;;;5.20;3.20;;;;;;;22.72;47.89;98892.19;3103372;28;19929;-72
2023/07/27 05:12:04;;;;;;;4.97;3.13;;;;;;;22.76;47.58;98900.66;3108540;28;20437;-69
2023/07/27 05:13:37;;;;;;;6.65;2.95;;;;;;;22.79;47.68;98905.63;3107720;28;20054;-73
2023/07/27 05:15:08;;;;;;;8.27;3.13;;;;;;;22.82;47.55;98914.06;3108042;28;20136;-75
2023/07/27 05:16:40;;;;;;;4.80;2.95;;;;;;;22.79;47.64;98917.06;3097716;28;20047;-76
2023/07/27 05:18:14;;;;;;;6.93;3.83;;;;;;;22.76;47.56;98914.75;3107792;28;20074;-78
2023/07/27 05:19:45;;;;;;;3.78;3.17;;;;;;;22.75;47.46;98906.97;3108732;28;20440;-74
2023/07/27 05:21:17;;;;;;;7.53;3.10;;;;;;;22.80;47.41;98921.34;3108465;28;20057;-77
2023/07/27 05:22:53;;;;;;;3.97;3.00;;;;;;;22.85;47.15;98910.25;3108024;28;20112;-72
2023/07/27 05:24:24;;;;;;;3.92;3.10;;;;;;;22.83;46.97;98918.38;3096588;28;20061;-72
2023/07/27 05:25:56;;;;;;;6.55;3.40;;;;;;;22.82;47.23;98914.06;3104776;28;20424;-73
2023/07/27 05:27:27;;;;;;;8.70;3.13;;;;;;;22.82;46.53;98913.25;3108726;28;20069;-72
2023/07/27 05:28:59;;;;;;;6.32;2.90;;;;;;;22.77;46.79;98924.34;3108543;28;20050;-71
2023/07/27 05:30:31;;;;;;;7.60;2.75;;;;;;;22.73;46.71;98927.53;3108280;28;20104;-71
2023/07/27 05:32:03;;;;;;;6.65;3.42;;;;;;;22.72;46.87;98926.69;3099308;28;20057;-73
2023/07/27 05:33:34;;;;;;;9.02;3.28;;;;;;;22.78;46.59;98936.63;3101142;28;20053;-73
2023/07/27 05:35:06;;;;;;;7.35;2.90;;;;;;;22.80;46.42;98939.94;3108457;28;20828;-73
2023/07/27 05:36:37;;;;;;;6.50;3.10;;;;;;;22.81;46.47;98930.16;3108501;28;20493;-73
2023/07/27 05:38:11;;;;;;;7.50;3.60;;;;;;;22.86;46.56;98933.94;3104941;28;20053;-71
2023/07/27 05:39:42;;;;;;;5.70;3.08;;;;;;;22.81;46.58;98938.13;3108678;28;20137;-71
2023/07/27 05:41:14;;;;;;;8.52;4.05;;;;;;;22.81;46.27;98952.22;3097170;28;20494;-71
2023/07/27 05:42:45;;;;;;;4.55;2.90;;;;;;;22.77;46.30;98942.94;3096559;28;20054;-71
2023/07/27 05:44:17;;;;;;;5.80;3.22;;;;;;;22.80;46.10;98958.50;3084470;28;20147;-72
2023/07/27 05:45:50;;;;;;;9.98;3.30;;;;;;;22.85;46.14;98955.38;3099364;28;20058;-70
2023/07/27 05:47:21;;;;;;;10.38;3.75;;;;;;;22.84;45.83;98962.50;3096313;28;20046;-70
2023/07/27 05:48:52;;;;;;;7.80;3.58;;;;;;;22.84;45.89;98943.94;3106461;28;20096;-70
2023/07/27 05:50:25;;;;;;;8.73;3.70;;;;;;;22.86;45.96;98949.88;3108420;28;20188;-70
2023/07/27 05:51:56;;;;;;;4.88;3.80;;;;;;;22.89;46.31;98965.50;3104884;28;20147;-70
2023/07/27 05:53:29;;;;;;;10.40;3.55;;;;;;;22.97;46.11;98972.63;3101273;28;20062;-72
2023/07/27 05:55:01;;;;;;;4.47;3.42;;;;;;;22.99;45.96;98959.19;3098167;28;20488;-73
2023/07/27 05:56:32;;;;;;;4.55;3.30;;;;;;;23.06;46.07;98966.31;3108363;28;20054;-73
2023/07/27 05:58:03;;;;;;;7.88;3.25;;;;;;;23.14;45.83;98954.84;3108344;28;20731;-71
2023/07/27 05:59:35;;;;;;;6.15;3.83;;;;;;;23.16;45.53;98952.84;3105565;28;20104;-72
2023/07/27 06:01:07;;;;;;;8.70;3.38;;;;;;;23.19;45.62;98943.69;3099829;28;20594;-71
2023/07/27 06:02:39;;;;;;;13.60;3.47;;;;;;;23.19;45.26;98939.22;3100418;28;20053;-71
2023/07/27 06:04:11;;;;;;;5.57;2.92;;;;;;;23.20;45.11;98954.16;3108014;28;20099;-71
2023/07/27 06:05:44;;;;;;;6.97;3.30;;;;;;;23.15;45.33;98937.91;3096110;28;20551;-70
2023/07/27 06:07:15;;;;;;;5.35;3.03;;;;;;;23.15;45.09;98943.22;3098196;28;20050;-74
2023/07/27 06:08:48;;;;;;;6.22;3.17;;;;;;;23.17;44.82;98946.53;3099525;28;20065;-71
2023/07/27 06:10:19;;;;;;;8.13;2.90;;;;;;;23.15;45.08;98959.97;3096296;28;20061;-72
2023/07/27 06:11:52;;;;;;;6.63;2.83;;;;;;;23.08;45.13;98924.47;3108124;28;20546;-73
2023/07/27 06:13:23;;;;;;;10.65;3.30;;;;;;;23.11;45.10;98941.91;3108295;28;20501;-71
2023/07/27 06:14:55;;;;;;;5.65;2.95;;;;;;;23.14;44.87;98941.56;3105128;28;20053;-73
2023/07/27 06:16:26;;;;;;;4.97;2.70;;;;;;;23.14;45.00;98960.16;3095872;28;20058;-73
2023/07/27 06:17:58;;;;;;;7.05;3.38;;;;;;;23.17;44.81;98954.50;3095738;28;20492;-70
2023/07/27 06:19:29;;;;;;;7.15;3.10;;;;;;;23.16;44.79;98956.34;3105848;28;20149;-72
2023/07/27 06:21:01;;;;;;;8.07;2.75;;;;;;;23.19;44.99;98957.81;3106491;28;20097;-72
2023/07/27 06:22:33;;;;;;;13.40;2.65;;;;;;;23.23;44.86;98953.00;3108031;28;20128;-76
2023/07/27 06:24:07;;;;;;;6.57;2.65;;;;;;;23.21;44.55;98955.81;3096885;28;20538;-74
2023/07/27 06:25:42;;;;;;;14.45;2.80;;;;;;;23.26;44.51;98950.81;3101277;28;20046;-70
2023/07/27 06:27:13;;;;;;;5.60;2.60;;;;;;;23.29;44.64;98949.66;3107911;28;20128;-69
2023/07/27 06:28:45;;;;;;;12.75;2.63;;;;;;;23.30;44.94;98949.47;3107904;28;20049;-69
2023/07/27 06:30:18;;;;;;;9.10;2.60;;;;;;;23.30;44.81;98941.50;3098692;28;20105;-70
2023/07/27 06:31:50;;;;;;;;;;;;;;;23.18;45.06;98948.19;3099483;28;20129;-69
2023/07/27 06:33:25;;;;;;;6.25;2.42;;;;;;;23.29;45.08;98955.78;3107834;28;19979;-72
2023/07/27 06:34:56;;;;;;;7.78;2.70;;;;;;;23.37;44.73;98949.63;3100555;28;20140;-72
2023/07/27 06:36:27;;;;;;;10.20;2.40;;;;;;;23.38;44.65;98956.59;3107881;28;20068;-69
2023/07/27 06:38:00;;;;;;;3.72;2.50;;;;;;;23.34;44.43;98942.81;3105694;28;20050;-68
2023/07/27 06:39:32;;;;;;;6.18;1.83;;;;;;;23.41;44.35;98955.41;3095846;28;20050;-67
2023/07/27 06:41:04;;;;;;;10.75;2.55;;;;;;;23.42;44.07;98963.19;3093527;28;20120;-67
2023/07/27 06:42:36;;;;;;;12.70;2.30;;;;;;;23.42;44.10;98965.03;3095761;28;20504;-66
2023/07/27 06:44:08;;;;;;;7.18;2.08;;;;;;;23.46;43.81;98969.03;3104647;28;20319;-67
2023/07/27 06:45:39;;;;;;;8.35;2.28;;;;;;;23.51;43.80;98966.66;3095443;28;20050;-67
2023/07/27 06:47:11;;;;;;;10.82;1.90;;;;;;;23.56;43.77;98967.78;3105084;28;20056;-67
2023/07/27 06:48:42;;;;;;;9.80;2.08;;;;;;;23.63;43.47;98965.28;3107584;28;20052;-67
2023/07/27 06:50:14;;;;;;;10.30;2.20;;;;;;;23.71;43.03;98961.78;3103669;28;20049;-68
2023/07/27 06:51:46;;;;;;;11.60;2.50;;;;;;;23.75;43.03;98955.97;3105039;28;20050;-68
2023/07/27 06:53:18;;;;;;;4.20;2.13;;;;;;;23.77;42.92;98964.56;3101897;28;20050;-67
2023/07/27 06:54:51;;;;;;;2.97;2.20;;;;;;;23.82;42.65;98969.38;3095723;28;20050;-67
2023/07/27 06:56:23;;;;;;;4.03;2.17;;;;;;;23.86;42.47;98956.56;3100047;28;20112;-68
2023/07/27 06:57:56;;;;;;;8.95;1.90;;;;;;;23.84;42.21;98962.88;3107548;28;20132;-67
2023/07/27 06:59:28;;;;;;;12.30;2.28;;;;;;;23.83;42.48;98958.56;3099982;28;20053;-69
2023/07/27 07:01:00;;;;;;;8.63;2.30;;;;;;;23.79;42.32;98941.31;3107942;28;20057;-65
2023/07/27 07:02:32;;;;;;;7.78;2.25;;;;;;;23.78;42.10;98958.28;3107434;28;20057;-73
2023/07/27 07:04:03;;;;;;;4.95;2.00;;;;;;;23.80;42.47;98960.75;3107228;28;20478;-75
2023/07/27 07:05:36;;;;;;;9.88;2.20;;;;;;;23.82;42.37;98932.97;3107855;28;20439;-75
2023/07/27 07:07:07;;;;;;;10.10;2.30;;;;;;;23.89;42.11;98918.97;3083566;28;20259;-75
2023/07/27 07:08:39;;;;;;;9.75;2.45;;;;;;;23.91;42.00;98931.09;3098322;28;20049;-78
2023/07/27 07:10:12;;;;;;;4.97;1.90;;;;;;;23.98;41.45;98931.22;3095312;28;20126;-74
2023/07/27 07:11:44;;;;;;;5.00;2.30;;;;;;;24.04;41.45;98949.94;3101613;28;20092;-72
2023/07/27 07:13:15;;;;;;;15.70;2.28;;;;;;;24.04;41.13;98922.53;3106165;28;20313;-74
2023/07/27 07:14:47;;;;;;;2.55;1.63;;;;;;;24.19;40.78;98935.88;3095444;28;20405;-73